Time;durP1;ratioP1;P1;durP2;ratioP2;P2;SDS_P1;SDS_P2;PMS_P1;PMS_P2;Temp;Humidity;BMP_temperature;BMP_pressure;BME280_temperature;BME280_humidity;BME280_pressure;Samples;Min_cycle;Max_cycle;Signal;HPM_P1;HPM_P2
2023/07/15 00:00:53;;;;;;;5.28;2.50;;;20.40;99.90;;;;;;4979708;28;20461;-72
2023/07/15 00:03:20;;;;;;;3.90;2.47;;;20.40;99.90;;;;;;4980542;28;20045;-74
2023/07/15 00:05:47;;;;;;;4.03;2.50;;;20.40;99.90;;;;;;4980253;28;20092;-72
2023/07/15 00:08:13;;;;;;;4.85;2.55;;;20.40;99.90;;;;;;4979900;28;20536;-73
2023/07/15 00:10:43;;;;;;;5.07;2.60;;;20.40;99.90;;;;;;4979798;28;20050;-74
2023/07/15 00:13:14;;;;;;;3.60;2.55;;;20.40;99.90;;;;;;4979346;28;20568;-71
2023/07/15 00:15:44;;;;;;;5.75;3.00;;;20.40;99.90;;;;;;4979098;28;20471;-73
2023/07/15 00:18:12;;;;;;;4.55;2.60;;;20.40;99.90;;;;;;4991811;28;20153;-74
2023/07/15 00:20:38;;;;;;;3.15;1.80;;;20.30;99.90;;;;;;4991595;28;20808;-76
2023/07/15 00:23:24;;;;;;;5.72;2.53;;;20.30;99.90;;;;;;4975726;28;20520;-74
2023/07/15 00:25:50;;;;;;;5.45;2.78;;;20.30;99.90;;;;;;4977854;28;20491;-74
2023/07/15 00:28:21;;;;;;;5.50;2.40;;;20.30;99.90;;;;;;4978147;28;20050;-74
2023/07/15 00:30:50;;;;;;;4.00;2.30;;;20.30;99.90;;;;;;4994503;28;20537;-73
2023/07/15 00:33:16;;;;;;;4.00;2.25;;;20.30;99.90;;;;;;4979704;28;20697;-73
2023/07/15 00:35:43;;;;;;;3.95;1.95;;;20.30;99.90;;;;;;4979627;28;20605;-72
2023/07/15 00:38:12;;;;;;;4.40;2.20;;;20.30;99.90;;;;;;4991805;28;20585;-72
2023/07/15 00:40:42;;;;;;;3.30;1.88;;;20.30;99.90;;;;;;4976441;28;20038;-72
2023/07/15 00:43:45;;;;;;;2.97;1.92;;;20.30;99.90;;;;;;4976769;28;20149;-72
2023/07/15 00:46:23;;;;;;;5.28;2.10;;;20.30;83.70;;;;;;4976083;28;20649;-72
2023/07/15 00:49:11;;;;;;;4.30;2.13;;;20.20;20.20;;;;;;4958449;28;20607;-73
2023/07/15 00:51:46;;;;;;;3.30;2.05;;;20.30;1.00;;;;;;4976910;28;20142;-73
2023/07/15 00:54:14;;;;;;;3.85;2.20;;;20.30;1.00;;;;;;4990791;28;20697;-71
2023/07/15 00:56:41;;;;;;;4.05;2.00;;;20.40;1.00;;;;;;4974677;28;20050;-73
2023/07/15 00:59:09;;;;;;;5.22;2.13;;;20.40;1.00;;;;;;4976474;28;20054;-74
2023/07/15 01:01:36;;;;;;;3.22;1.80;;;20.40;99.90;;;;;;4989788;28;20042;-73
2023/07/15 01:04:02;;;;;;;6.93;1.92;;;20.40;99.90;;;;;;4974426;28;20046;-72
2023/07/15 01:06:28;;;;;;;4.45;1.83;;;20.40;99.90;;;;;;4975478;28;20086;-74
2023/07/15 01:08:54;;;;;;;5.60;1.90;;;20.30;99.90;;;;;;4990887;28;20049;-72
2023/07/15 01:11:20;;;;;;;6.22;1.88;;;20.30;99.90;;;;;;4990502;28;20287;-72
2023/07/15 01:13:47;;;;;;;3.67;1.92;;;20.30;99.90;;;;;;4976047;28;20141;-75
2023/07/15 01:16:13;;;;;;;5.25;2.03;;;20.20;99.90;;;;;;4991395;28;20046;-72
2023/07/15 01:18:38;;;;;;;3.28;1.88;;;20.30;99.90;;;;;;4977096;28;20049;-72
2023/07/15 01:21:05;;;;;;;3.88;2.10;;;20.30;99.90;;;;;;4976589;28;20038;-71
2023/07/15 01:23:31;;;;;;;4.18;1.83;;;20.30;99.90;;;;;;4976186;28;20121;-76
2023/07/15 01:25:57;;;;;;;4.70;1.73;;;20.40;99.90;;;;;;4976262;28;20121;-73
2023/07/15 01:28:23;;;;;;;3.58;1.90;;;20.40;99.90;;;;;;4975525;28;20034;-74
2023/07/15 01:30:49;;;;;;;4.10;1.80;;;20.40;99.90;;;;;;4977185;28;20292;-75
2023/07/15 01:33:18;;;;;;;2.83;1.58;;;20.40;99.90;;;;;;4962505;28;20062;-73
2023/07/15 01:35:47;;;;;;;3.03;1.75;;;20.50;99.90;;;;;;4982305;28;20038;-71
2023/07/15 01:38:14;;;;;;;4.68;1.60;;;20.50;99.90;;;;;;4981980;28;20084;-72
2023/07/15 01:40:40;;;;;;;4.78;1.80;;;20.50;99.90;;;;;;4980760;28;20133;-72
2023/07/15 01:43:06;;;;;;;4.75;1.80;;;20.50;99.90;;;;;;4977134;28;20117;-73
2023/07/15 01:45:31;;;;;;;3.13;1.63;;;20.50;99.90;;;;;;4991673;28;20046;-73
2023/07/15 01:47:57;;;;;;;5.53;1.70;;;20.50;99.90;;;;;;4959341;28;20061;-71
2023/07/15 01:50:23;;;;;;;3.70;1.48;;;20.40;99.90;;;;;;4974875;28;20047;-75
2023/07/15 01:52:48;;;;;;;4.43;2.25;;;20.40;99.90;;;;;;4974503;28;20072;-73
2023/07/15 01:55:14;;;;;;;4.20;1.70;;;20.40;99.90;;;;;;4974113;28;20042;-75
2023/07/15 01:57:40;;;;;;;6.43;1.88;;;20.40;99.90;;;;;;4974671;28;20498;-73
2023/07/15 02:00:08;;;;;;;6.03;2.10;;;20.40;99.90;;;;;;4997804;28;20109;-70
2023/07/15 02:02:33;;;;;;;3.05;1.42;;;20.30;99.90;;;;;;4982673;28;20046;-72
2023/07/15 02:04:59;;;;;;;5.13;1.80;;;20.30;99.90;;;;;;4983343;28;20134;-72
2023/07/15 02:07:25;;;;;;;4.50;1.67;;;20.30;99.90;;;;;;4978694;28;20449;-74
2023/07/15 02:09:51;;;;;;;3.38;1.52;;;20.30;99.90;;;;;;4990322;28;20058;-75
2023/07/15 02:12:17;;;;;;;4.15;1.45;;;20.40;99.90;;;;;;4973903;28;20046;-71
2023/07/15 02:14:43;;;;;;;6.40;1.45;;;20.40;99.90;;;;;;4976229;28;20042;-73
2023/07/15 02:17:08;;;;;;;2.90;1.27;;;20.50;99.90;;;;;;4975899;28;20049;-75
2023/07/15 02:19:34;;;;;;;3.55;1.65;;;20.50;99.90;;;;;;4975589;28;20136;-73
2023/07/15 02:22:00;;;;;;;4.60;1.60;;;20.40;99.90;;;;;;4974688;28;20502;-75
2023/07/15 02:24:26;;;;;;;5.97;1.70;;;20.40;99.90;;;;;;4974690;28;20085;-74
2023/07/15 02:26:52;;;;;;;2.10;1.27;;;20.40;99.90;;;;;;4989391;28;20050;-75
2023/07/15 02:29:18;;;;;;;4.85;1.52;;;20.40;99.90;;;;;;4974514;28;20132;-75
2023/07/15 02:31:44;;;;;;;3.65;1.42;;;20.40;99.90;;;;;;4973689;28;20046;-73
2023/07/15 02:34:11;;;;;;;2.67;1.20;;;20.50;99.90;;;;;;4974076;28;20132;-73
2023/07/15 02:36:36;;;;;;;2.67;1.58;;;20.50;99.90;;;;;;4973876;28;20367;-73
2023/07/15 02:39:06;;;;;;;4.63;1.13;;;20.50;99.90;;;;;;4974979;28;20651;-73
2023/07/15 02:41:32;;;;;;;5.25;1.58;;;20.40;99.90;;;;;;4973418;28;21128;-72
2023/07/15 02:43:58;;;;;;;2.88;1.30;;;20.40;99.90;;;;;;4989533;28;20054;-75
2023/07/15 02:46:24;;;;;;;4.47;1.50;;;20.40;99.90;;;;;;4989386;28;20343;-72
2023/07/15 02:48:50;;;;;;;5.22;1.63;;;20.30;99.90;;;;;;4974599;28;20446;-74
2023/07/15 02:51:15;;;;;;;4.20;1.50;;;20.30;99.90;;;;;;4974511;28;20521;-73
2023/07/15 02:53:43;;;;;;;7.03;1.40;;;20.30;99.90;;;;;;4972994;28;20062;-73
2023/07/15 02:56:09;;;;;;;5.38;1.35;;;20.30;99.90;;;;;;4975482;28;20130;-73
2023/07/15 02:58:35;;;;;;;5.55;1.45;;;20.30;99.90;;;;;;4976797;28;20544;-75
2023/07/15 03:01:00;;;;;;;3.00;1.27;;;20.20;99.90;;;;;;4975471;28;20042;-73
2023/07/15 03:03:26;;;;;;;4.30;1.42;;;20.20;99.90;;;;;;4975336;28;20434;-73
2023/07/15 03:05:54;;;;;;;3.58;1.55;;;20.10;99.90;;;;;;4976920;28;20294;-73
2023/07/15 03:08:20;;;;;;;3.45;1.40;;;20.10;99.90;;;;;;4990052;28;20038;-71
2023/07/15 03:10:46;;;;;;;2.88;1.10;;;20.10;99.90;;;;;;4973746;28;20441;-72
2023/07/15 03:13:12;;;;;;;3.47;1.17;;;20.10;99.90;;;;;;4974472;28;20446;-73
2023/07/15 03:15:40;;;;;;;2.47;1.02;;;20.10;99.90;;;;;;4956088;28;20050;-73
2023/07/15 03:18:05;;;;;;;3.67;1.60;;;20.20;99.90;;;;;;4989588;28;20113;-73
2023/07/15 03:20:31;;;;;;;2.10;1.23;;;20.20;99.90;;;;;;4974854;28;20041;-74
2023/07/15 03:22:57;;;;;;;4.60;1.20;;;20.20;99.90;;;;;;4991519;28;20526;-75
2023/07/15 03:25:24;;;;;;;4.13;1.25;;;20.20;99.90;;;;;;4978725;28;20053;-74
2023/07/15 03:27:50;;;;;;;3.65;0.90;;;20.20;99.90;;;;;;4995476;28;20274;-72
2023/07/15 03:30:17;;;;;;;3.80;1.20;;;20.20;99.90;;;;;;4978553;28;20466;-73
2023/07/15 03:32:44;;;;;;;3.97;1.13;;;20.20;99.90;;;;;;4977901;28;20399;-70
2023/07/15 03:35:10;;;;;;;2.40;1.33;;;20.20;99.90;;;;;;4978759;28;20430;-72
2023/07/15 03:37:38;;;;;;;4.47;1.10;;;20.10;99.90;;;;;;4977886;28;20568;-74
2023/07/15 03:40:08;;;;;;;4.88;1.45;;;20.00;99.90;;;;;;4993062;28;20057;-75
2023/07/15 03:42:34;;;;;;;3.83;1.27;;;19.90;99.90;;;;;;4977939;28;20381;-71
2023/07/15 03:44:59;;;;;;;5.38;1.42;;;19.90;99.90;;;;;;4992466;28;20050;-71
2023/07/15 03:47:25;;;;;;;2.15;1.23;;;19.80;99.90;;;;;;4992033;28;20321;-73
2023/07/15 03:49:51;;;;;;;4.90;1.50;;;19.70;99.90;;;;;;4977659;28;20046;-75
2023/07/15 03:52:17;;;;;;;4.32;1.33;;;19.70;99.90;;;;;;4975348;28;20505;-74
2023/07/15 03:54:43;;;;;;;4.57;1.50;;;19.60;99.90;;;;;;4992694;28;20089;-75
2023/07/15 03:57:10;;;;;;;4.28;1.15;;;19.50;99.90;;;;;;4977161;28;20487;-73
2023/07/15 03:59:35;;;;;;;4.07;1.38;;;19.50;99.90;;;;;;4977133;28;20050;-73
2023/07/15 04:02:02;;;;;;;2.83;1.00;;;19.50;99.90;;;;;;4977197;28;20813;-74
2023/07/15 04:04:28;;;;;;;5.60;1.50;;;19.50;99.90;;;;;;4976839;28;20414;-75
2023/07/15 04:06:55;;;;;;;3.92;1.35;;;19.50;99.90;;;;;;4959360;28;20313;-73
2023/07/15 04:09:21;;;;;;;2.53;1.45;;;19.50;99.90;;;;;;4977794;28;20053;-75
2023/07/15 04:11:47;;;;;;;5.35;1.45;;;19.50;99.90;;;;;;4977234;28;20724;-73
2023/07/15 04:14:13;;;;;;;2.83;1.23;;;19.40;99.90;;;;;;4992103;28;20046;-72
2023/07/15 04:16:41;;;;;;;4.18;1.55;;;19.40;99.90;;;;;;4978674;28;20077;-73
2023/07/15 04:19:07;;;;;;;2.60;1.45;;;19.40;99.90;;;;;;4977897;28;20048;-73
2023/07/15 04:21:33;;;;;;;4.65;1.27;;;19.40;99.90;;;;;;4975789;28;20042;-74
2023/07/15 04:23:58;;;;;;;5.75;1.45;;;19.40;99.90;;;;;;4976911;28;20046;-73
2023/07/15 04:26:26;;;;;;;4.15;1.20;;;19.40;99.90;;;;;;4976191;28;20133;-74
2023/07/15 04:28:56;;;;;;;1.92;1.02;;;19.40;99.90;;;;;;4975945;28;20108;-75
2023/07/15 04:31:22;;;;;;;5.47;1.65;;;19.40;99.90;;;;;;4976588;28;20038;-72
2023/07/15 04:33:50;;;;;;;3.13;1.15;;;19.40;99.90;;;;;;4977070;28;20049;-73
2023/07/15 04:36:18;;;;;;;3.92;1.20;;;19.40;99.90;;;;;;4977309;28;20295;-74
2023/07/15 04:38:44;;;;;;;3.25;1.13;;;19.40;99.90;;;;;;4979253;28;20046;-74
2023/07/15 04:41:10;;;;;;;3.42;1.10;;;19.40;99.90;;;;;;4993336;28;20054;-73
2023/07/15 04:43:36;;;;;;;3.45;1.52;;;19.50;99.90;;;;;;4976915;28;20045;-74
2023/07/15 04:46:02;;;;;;;6.90;1.67;;;19.50;99.90;;;;;;4960741;28;20148;-74
2023/07/15 04:48:29;;;;;;;3.95;1.20;;;19.60;99.90;;;;;;4978668;28;20042;-73
2023/07/15 04:50:55;;;;;;;4.32;1.50;;;19.60;99.90;;;;;;4977661;28;20052;-73
2023/07/15 04:53:21;;;;;;;3.97;1.60;;;19.60;99.90;;;;;;4979545;28;20902;-75
2023/07/15 04:55:48;;;;;;;5.07;1.58;;;19.70;99.90;;;;;;4992482;28;20057;-73
2023/07/15 04:58:18;;;;;;;5.88;1.15;;;19.70;99.90;;;;;;4991373;28;20157;-74
2023/07/15 05:00:46;;;;;;;3.55;1.30;;;19.80;99.90;;;;;;4975607;28;20501;-73
2023/07/15 05:03:13;;;;;;;2.85;0.90;;;19.80;99.90;;;;;;4974616;28;20073;-74
2023/07/15 05:05:44;;;;;;;2.47;1.08;;;19.80;99.90;;;;;;4990373;28;20125;-73
2023/07/15 05:08:12;;;;;;;4.05;1.38;;;19.90;99.90;;;;;;4990232;28;20058;-75
2023/07/15 05:10:39;;;;;;;3.60;1.15;;;19.90;99.90;;;;;;4973684;28;20050;-74
2023/07/15 05:13:09;;;;;;;3.78;0.90;;;20.00;99.90;;;;;;4975570;28;20502;-73
2023/07/15 05:15:53;;;;;;;;;;;;;;;;;;;;;
2023/07/15 05:18:19;;;;;;;3.38;1.02;;;20.20;99.90;;;;;;4975593;28;20050;-73
2023/07/15 05:20:45;;;;;;;2.88;1.30;;;20.30;99.90;;;;;;4975618;28;20517;-74
2023/07/15 05:23:10;;;;;;;3.15;1.10;;;20.50;99.90;;;;;;4974035;28;20050;-73
2023/07/15 05:25:36;;;;;;;3.10;0.93;;;20.60;99.90;;;;;;4973207;28;20042;-72
2023/07/15 05:28:03;;;;;;;2.58;0.77;;;20.80;99.90;;;;;;4974365;28;20402;-74
2023/07/15 05:30:29;;;;;;;5.63;1.10;;;20.90;99.90;;;;;;4989534;28;20984;-72
2023/07/15 05:32:55;;;;;;;5.85;1.23;;;21.00;99.90;;;;;;4989266;28;20038;-74
2023/07/15 05:35:24;;;;;;;4.28;1.10;;;21.10;99.90;;;;;;4975088;28;20039;-73
2023/07/15 05:37:50;;;;;;;3.92;1.20;;;21.10;99.90;;;;;;4973681;28;20030;-74
2023/07/15 05:40:16;;;;;;;2.50;0.88;;;21.00;99.90;;;;;;4974562;28;20584;-73
2023/07/15 05:42:43;;;;;;;4.18;0.88;;;21.10;99.90;;;;;;4973995;28;20115;-73
2023/07/15 05:45:10;;;;;;;2.55;0.80;;;21.30;99.90;;;;;;4972830;28;20038;-73
2023/07/15 05:47:36;;;;;;;1.58;0.82;;;21.50;99.90;;;;;;4973161;28;20078;-72
2023/07/15 05:50:02;;;;;;;4.53;1.17;;;21.80;99.90;;;;;;4973402;28;20667;-72
2023/07/15 05:52:28;;;;;;;4.22;1.00;;;22.00;99.90;;;;;;4989036;28;20054;-75
2023/07/15 05:54:54;;;;;;;3.65;1.00;;;22.00;99.90;;;;;;4974499;28;20659;-75
2023/07/15 05:57:20;;;;;;;3.95;1.10;;;22.10;81.50;;;;;;4974770;28;20266;-74
2023/07/15 05:59:46;;;;;;;2.50;0.90;;;22.30;90.60;;;;;;4974406;28;20053;-73
2023/07/15 06:02:11;;;;;;;3.88;1.08;;;22.40;64.60;;;;;;4973301;28;20050;-72
2023/07/15 06:04:37;;;;;;;4.50;1.00;;;22.60;23.80;;;;;;4989448;28;20099;-72
2023/07/15 06:07:03;;;;;;;3.28;1.00;;;22.70;10.50;;;;;;4975157;28;20038;-75
2023/07/15 06:09:29;;;;;;;4.55;1.10;;;22.80;20.40;;;;;;4974077;28;20034;-73
2023/07/15 06:11:55;;;;;;;3.22;1.15;;;22.90;17.50;;;;;;4974229;28;20105;-75
2023/07/15 06:14:21;;;;;;;4.38;0.82;;;23.00;15.10;;;;;;4974318;28;20129;-73
2023/07/15 06:16:46;;;;;;;4.68;0.80;;;23.10;4.80;;;;;;4990041;28;20125;-74
2023/07/15 06:19:12;;;;;;;3.95;0.90;;;23.20;13.20;;;;;;4973581;28;20396;-74
2023/07/15 06:21:40;;;;;;;4.07;1.02;;;23.30;11.20;;;;;;4972850;28;20042;-76
2023/07/15 06:24:06;;;;;;;5.25;0.90;;;23.50;1.00;;;;;;4972822;28;20137;-76
2023/07/15 06:26:32;;;;;;;3.50;0.70;;;23.60;1.00;;;;;;4974945;28;20042;-74
2023/07/15 06:28:57;;;;;;;7.15;0.80;;;23.70;1.00;;;;;;4973241;28;20104;-73
2023/07/15 06:31:23;;;;;;;4.05;1.00;;;23.70;12.50;;;;;;4974403;28;20046;-74
2023/07/15 06:33:49;;;;;;;1.65;0.60;;;23.80;31.50;;;;;;4973454;28;20454;-74
2023/07/15 06:36:15;;;;;;;1.20;0.60;;;23.90;32.10;;;;;;4973101;28;20046;-73
2023/07/15 06:38:41;;;;;;;2.80;0.70;;;23.90;71.30;;;;;;4977635;28;20093;-74
2023/07/15 06:41:07;;;;;;;2.45;0.73;;;24.00;94.00;;;;;;4991767;28;20169;-74
2023/07/15 06:43:33;;;;;;;3.45;0.70;;;24.00;96.20;;;;;;4992354;28;20037;-73
2023/07/15 06:45:58;;;;;;;2.42;0.60;;;24.10;92.80;;;;;;4983533;28;20042;-75
2023/07/15 06:48:24;;;;;;;2.13;0.77;;;24.20;75.00;;;;;;4982851;28;20038;-74
2023/07/15 06:50:50;;;;;;;5.68;0.80;;;24.60;74.00;;;;;;4982737;28;20356;-74
2023/07/15 06:53:16;;;;;;;1.50;0.60;;;24.70;32.70;;;;;;4976994;28;20054;-75
2023/07/15 06:55:41;;;;;;;2.30;0.80;;;24.40;43.70;;;;;;4990332;28;20046;-73
2023/07/15 06:58:07;;;;;;;4.05;0.73;;;24.40;69.80;;;;;;4974089;28;20445;-74
2023/07/15 07:00:33;;;;;;;1.35;0.60;;;24.30;95.40;;;;;;4973888;28;20101;-73
2023/07/15 07:02:59;;;;;;;1.80;0.50;;;24.40;99.90;;;;;;4977729;28;20045;-73
2023/07/15 07:05:26;;;;;;;2.53;0.50;;;24.40;99.90;;;;;;4978265;28;20043;-74
2023/07/15 07:07:52;;;;;;;2.90;0.60;;;24.40;99.90;;;;;;4976684;28;20479;-72
2023/07/15 07:10:17;;;;;;;1.85;0.55;;;24.50;99.90;;;;;;4982817;28;20038;-74
2023/07/15 07:12:43;;;;;;;2.03;0.50;;;24.50;99.90;;;;;;4988359;28;20048;-73
2023/07/15 07:15:09;;;;;;;4.20;0.82;;;24.50;97.10;;;;;;4988030;28;20327;-73
2023/07/15 07:17:35;;;;;;;3.85;0.60;;;24.60;99.80;;;;;;5002603;28;20062;-73
2023/07/15 07:20:03;;;;;;;2.40;0.70;;;24.70;86.00;;;;;;4982088;28;20129;-73
2023/07/15 07:22:29;;;;;;;4.28;0.68;;;24.70;95.50;;;;;;4978125;28;20093;-72
2023/07/15 07:24:55;;;;;;;4.35;0.82;;;24.90;66.80;;;;;;4979600;28;20038;-75
2023/07/15 07:27:21;;;;;;;5.05;0.70;;;24.90;61.00;;;;;;4962124;28;20070;-74
2023/07/15 07:29:46;;;;;;;2.67;0.70;;;25.00;94.80;;;;;;4979609;28;20077;-73
2023/07/15 07:32:12;;;;;;;2.45;0.40;;;25.10;77.80;;;;;;4977877;28;20042;-73
2023/07/15 07:34:38;;;;;;;3.75;0.43;;;25.20;61.00;;;;;;4960143;28;20077;-73
2023/07/15 07:37:04;;;;;;;2.65;0.52;;;25.20;59.10;;;;;;4975759;28;20173;-75
2023/07/15 07:39:30;;;;;;;3.25;0.57;;;25.20;46.10;;;;;;4978029;28;20053;-75
2023/07/15 07:41:55;;;;;;;3.25;0.60;;;25.20;50.90;;;;;;4978259;28;20537;-74
2023/07/15 07:44:22;;;;;;;3.67;0.50;;;25.10;52.40;;;;;;4978549;28;20437;-73
2023/07/15 07:46:48;;;;;;;1.52;0.30;;;25.10;57.20;;;;;;4978301;28;20039;-72
2023/07/15 07:49:14;;;;;;;1.48;0.40;;;25.00;74.20;;;;;;4976694;28;20059;-75
2023/07/15 07:51:40;;;;;;;2.22;0.50;;;25.20;68.10;;;;;;4978572;28;20046;-74
2023/07/15 07:54:06;;;;;;;3.17;0.50;;;25.40;47.70;;;;;;4994620;28;20548;-74
2023/07/15 07:56:31;;;;;;;2.85;0.40;;;25.50;35.60;;;;;;4981484;28;20512;-73
2023/07/15 07:58:59;;;;;;;3.47;0.50;;;25.60;26.40;;;;;;4979969;28;20109;-75
2023/07/15 08:01:25;;;;;;;1.95;0.47;;;25.70;23.40;;;;;;4998220;28;20550;-72
2023/07/15 08:03:52;;;;;;;2.65;0.50;;;25.90;1.00;;;;;;4978194;28;20124;-77
2023/07/15 08:06:20;;;;;;;2.42;0.50;;;25.90;1.40;;;;;;4979808;28;20239;-74
2023/07/15 08:08:46;;;;;;;2.90;0.50;;;25.90;1.00;;;;;;4981426;28;20303;-76
2023/07/15 08:11:12;;;;;;;3.63;0.60;;;26.00;1.00;;;;;;4980991;28;20050;-72
2023/07/15 08:13:38;;;;;;;2.78;0.60;;;25.90;1.00;;;;;;4981231;28;20042;-74
2023/07/15 08:16:04;;;;;;;3.00;0.60;;;26.00;24.80;;;;;;4978950;28;20429;-72
2023/07/15 08:18:30;;;;;;;2.13;0.40;;;26.10;1.00;;;;;;4978066;28;20042;-74
2023/07/15 08:20:55;;;;;;;3.10;0.50;;;26.20;1.00;;;;;;4979446;28;20057;-74
2023/07/15 08:23:21;;;;;;;2.97;0.40;;;26.20;3.90;;;;;;4979273;28;20400;-73
2023/07/15 08:25:47;;;;;;;4.05;0.60;;;26.30;1.00;;;;;;4994496;28;20738;-75
2023/07/15 08:28:13;;;;;;;1.88;0.40;;;26.30;1.00;;;;;;4962172;28;20588;-76
2023/07/15 08:30:39;;;;;;;1.40;0.40;;;26.40;1.00;;;;;;4979303;28;20475;-73
2023/07/15 08:33:06;;;;;;;3.20;0.40;;;26.50;1.00;;;;;;4980986;28;20061;-73
2023/07/15 08:35:35;;;;;;;2.97;0.50;;;26.40;1.00;;;;;;4996489;28;20596;-74
2023/07/15 08:38:01;;;;;;;2.88;0.40;;;26.50;1.00;;;;;;4981792;28;20042;-74
2023/07/15 08:40:27;;;;;;;2.58;0.40;;;26.70;1.00;;;;;;4980975;28;20046;-72
2023/07/15 08:42:55;;;;;;;1.52;0.40;;;26.90;1.00;;;;;;4977685;28;20046;-76
2023/07/15 08:45:24;;;;;;;2.53;0.40;;;26.90;1.00;;;;;;4979345;28;20090;-75
2023/07/15 08:47:50;;;;;;;2.88;0.40;;;26.70;1.00;;;;;;4978565;28;20062;-72
2023/07/15 08:50:17;;;;;;;1.80;0.50;;;26.30;1.00;;;;;;4977179;28;20432;-72
2023/07/15 08:52:44;;;;;;;1.77;0.60;;;26.20;1.00;;;;;;4977303;28;20069;-74
2023/07/15 08:55:11;;;;;;;2.10;0.30;;;26.20;1.00;;;;;;4977993;28;20387;-73
2023/07/15 08:57:37;;;;;;;2.38;0.40;;;26.20;1.00;;;;;;4993921;28;20054;-74
2023/07/15 09:00:08;;;;;;;3.05;0.50;;;26.00;10.20;;;;;;4993597;28;20076;-73
2023/07/15 09:02:37;;;;;;;2.55;0.50;;;26.00;1.00;;;;;;4979335;28;20053;-73
2023/07/15 09:05:05;;;;;;;2.70;0.50;;;26.20;26.60;;;;;;4978633;28;20852;-74
2023/07/15 09:07:31;;;;;;;1.48;0.50;;;26.30;31.00;;;;;;4993986;28;20108;-75
2023/07/15 09:10:04;;;;;;;1.88;0.40;;;26.90;1.00;;;;;;4979140;28;20541;-76
2023/07/15 09:12:30;;;;;;;1.85;0.60;;;26.90;1.00;;;;;;4978226;28;20058;-74
2023/07/15 09:14:56;;;;;;;2.40;0.50;;;26.80;1.00;;;;;;4977225;28;20442;-76
2023/07/15 09:17:24;;;;;;;1.13;0.40;;;26.60;1.00;;;;;;4978558;28;20896;-74
2023/07/15 09:19:50;;;;;;;1.27;0.40;;;26.50;1.00;;;;;;4978976;28;20097;-76
2023/07/15 09:22:16;;;;;;;2.55;0.30;;;26.50;3.60;;;;;;4977207;28;20092;-76
2023/07/15 09:24:42;;;;;;;2.20;0.32;;;26.10;1.00;;;;;;4977937;28;20077;-74
2023/07/15 09:27:08;;;;;;;1.17;0.30;;;26.10;7.50;;;;;;4976930;28;20086;-75
2023/07/15 09:29:35;;;;;;;1.50;0.45;;;26.30;1.00;;;;;;4992989;28;20043;-73
2023/07/15 09:32:01;;;;;;;2.28;0.30;;;26.50;1.00;;;;;;4977050;28;20065;-77
2023/07/15 09:34:27;;;;;;;2.60;0.50;;;27.00;1.00;;;;;;4993506;28;20446;-75
2023/07/15 09:36:53;;;;;;;2.05;0.50;;;27.40;1.00;;;;;;4978992;28;20554;-73
2023/07/15 09:39:22;;;;;;;3.38;0.40;;;27.60;1.00;;;;;;4978254;28;20128;-75
2023/07/15 09:42:07;;;;;;;2.75;0.50;;;27.70;1.00;;;;;;4978472;28;20046;-73
2023/07/15 09:44:40;;;;;;;2.22;0.75;;;27.80;1.00;;;;;;4978453;28;20042;-74
2023/07/15 09:47:07;;;;;;;2.55;0.60;;;27.70;1.00;;;;;;4977049;28;20046;-73
2023/07/15 09:49:33;;;;;;;2.05;0.50;;;27.90;1.00;;;;;;4977562;28;20133;-75
2023/07/15 09:52:01;;;;;;;2.65;0.50;;;27.90;1.00;;;;;;4993085;28;20057;-76
2023/07/15 09:54:30;;;;;;;1.70;0.50;;;28.10;1.00;;;;;;4975475;28;20058;-78
2023/07/15 09:57:13;;;;;;;1.92;0.50;;;28.30;1.00;;;;;;4975438;28;20351;-76
2023/07/15 09:59:44;;;;;;;1.35;0.45;;;28.10;1.00;;;;;;4974695;28;20046;-74
2023/07/15 10:02:32;;;;;;;2.92;0.40;;;27.90;1.00;;;;;;4974959;28;20046;-75
2023/07/15 10:05:05;;;;;;;3.58;0.60;;;27.60;1.00;;;;;;4974713;28;20533;-75
2023/07/15 10:07:32;;;;;;;3.40;0.60;;;27.10;1.00;;;;;;4992739;28;20058;-75
2023/07/15 10:10:01;;;;;;;3.65;0.50;;;26.80;1.00;;;;;;4978041;28;20046;-73
2023/07/15 10:12:28;;;;;;;2.78;0.50;;;26.60;1.00;;;;;;4977328;28;20658;-78
2023/07/15 10:14:54;;;;;;;1.48;0.50;;;26.30;38.40;;;;;;4978108;28;20102;-74
2023/07/15 10:17:20;;;;;;;1.70;0.50;;;26.00;51.50;;;;;;4976418;28;20046;-75
2023/07/15 10:19:48;;;;;;;2.80;0.50;;;26.20;91.30;;;;;;4975519;28;20497;-76
2023/07/15 10:22:16;;;;;;;2.55;0.43;;;26.50;81.50;;;;;;4973737;28;20057;-73
2023/07/15 10:24:43;;;;;;;1.35;0.43;;;26.80;56.80;;;;;;4972634;28;20049;-73
2023/07/15 10:27:13;;;;;;;1.25;0.40;;;26.80;52.00;;;;;;4972698;28;20034;-76
2023/07/15 10:29:40;;;;;;;1.83;0.43;;;26.70;50.50;;;;;;4973593;28;20060;-75
2023/07/15 10:32:14;;;;;;;1.17;0.43;;;26.50;76.90;;;;;;4956984;28;20038;-75
2023/07/15 10:34:51;;;;;;;4.10;0.60;;;26.60;90.90;;;;;;4989464;28;20081;-77
2023/07/15 10:37:19;;;;;;;5.07;0.70;;;27.40;23.60;;;;;;4974635;28;20073;-75
2023/07/15 10:39:46;;;;;;;1.98;0.50;;;28.00;1.00;;;;;;4974629;28;20118;-76
2023/07/15 10:42:13;;;;;;;1.58;0.65;;;28.20;1.00;;;;;;4989705;28;20072;-73
2023/07/15 10:44:59;;;;;;;3.25;0.60;;;28.40;1.00;;;;;;4972774;28;20498;-76
2023/07/15 10:47:25;;;;;;;1.30;0.40;;;28.60;1.00;;;;;;4974577;28;20443;-74
2023/07/15 10:49:51;;;;;;;1.23;0.47;;;28.40;1.00;;;;;;4975853;28;20665;-78
2023/07/15 10:52:22;;;;;;;1.95;0.45;;;28.20;1.00;;;;;;4973293;28;20040;-75
2023/07/15 10:54:47;;;;;;;2.17;0.30;;;28.20;1.00;;;;;;4972707;28;20054;-76
2023/07/15 10:57:15;;;;;;;1.58;0.35;;;28.60;1.00;;;;;;4974057;28;20050;-75
2023/07/15 10:59:45;;;;;;;2.53;0.40;;;28.40;1.00;;;;;;4973110;28;20039;-76
2023/07/15 11:02:12;;;;;;;2.22;0.30;;;28.70;1.00;;;;;;4974982;28;20089;-75
2023/07/15 11:04:39;;;;;;;2.58;0.40;;;29.10;1.00;;;;;;4974062;28;20046;-74
2023/07/15 11:07:09;;;;;;;2.42;0.30;;;29.00;99.90;;;;;;4973851;28;20491;-74
2023/07/15 11:09:41;;;;;;;1.00;0.30;;;29.20;1.00;;;;;;4973984;28;20113;-75
2023/07/15 11:12:08;;;;;;;;;;;29.40;1.00;;;;;;4973438;28;20046;-76
2023/07/15 11:14:33;;;;;;;1.13;0.40;;;29.40;99.90;;;;;;4974639;28;19952;-76
2023/07/15 11:17:01;;;;;;;1.45;0.40;;;29.20;99.90;;;;;;4974001;28;20050;-73
2023/07/15 11:19:28;;;;;;;2.05;0.30;;;29.00;99.90;;;;;;4956766;28;20133;-74
2023/07/15 11:21:58;;;;;;;2.33;0.40;;;29.20;99.90;;;;;;4974220;28;20050;-75
2023/07/15 11:24:27;;;;;;;1.67;0.30;;;29.50;99.90;;;;;;4974800;28;20124;-74
2023/07/15 11:26:54;;;;;;;2.60;0.47;;;29.40;99.90;;;;;;4975556;28;20052;-73
2023/07/15 11:29:24;;;;;;;1.42;0.30;;;29.30;99.90;;;;;;4973627;28;20584;-74
2023/07/15 11:32:00;;;;;;;0.60;0.30;;;29.30;99.90;;;;;;4973158;28;20465;-74
2023/07/15 11:34:26;;;;;;;2.30;0.30;;;29.30;1.00;;;;;;4974487;28;20080;-74
2023/07/15 11:36:54;;;;;;;1.83;0.30;;;29.70;99.90;;;;;;4974366;28;20129;-73
2023/07/15 11:39:20;;;;;;;0.80;0.25;;;29.70;99.90;;;;;;4973888;28;20203;-75
2023/07/15 11:41:48;;;;;;;2.22;0.30;;;29.70;99.90;;;;;;4974754;28;20117;-75
2023/07/15 11:44:16;;;;;;;0.60;0.20;;;29.60;99.90;;;;;;4977704;28;20046;-77
2023/07/15 11:46:45;;;;;;;1.17;0.30;;;29.70;99.90;;;;;;4977704;28;20125;-74
2023/07/15 11:49:11;;;;;;;1.35;0.30;;;29.80;99.90;;;;;;4980497;28;20129;-73
2023/07/15 11:51:41;;;;;;;2.28;0.28;;;30.00;99.90;;;;;;4980874;28;20498;-74
2023/07/15 11:54:08;;;;;;;0.80;0.30;;;29.50;99.90;;;;;;4980666;28;20390;-75
2023/07/15 11:56:42;;;;;;;2.95;0.30;;;29.00;99.90;;;;;;4980964;28;20093;-74
2023/07/15 11:59:11;;;;;;;0.80;0.20;;;28.60;99.90;;;;;;4995041;28;20074;-74
2023/07/15 12:01:38;;;;;;;2.38;0.30;;;27.80;1.00;;;;;;4981082;28;20415;-74
2023/07/15 12:04:17;;;;;;;1.65;0.30;;;27.90;1.00;;;;;;4980190;28;20050;-76
2023/07/15 12:07:22;;;;;;;1.08;0.30;;;27.90;1.00;;;;;;4979142;28;20043;-78
2023/07/15 12:10:05;;;;;;;1.40;0.32;;;27.60;1.00;;;;;;4963685;28;20081;-73
2023/07/15 12:12:30;;;;;;;0.98;0.30;;;27.60;1.00;;;;;;4978940;28;20081;-75
2023/07/15 12:14:56;;;;;;;2.53;0.30;;;27.40;1.00;;;;;;4978959;28;20612;-74
2023/07/15 12:17:22;;;;;;;3.08;0.30;;;27.40;1.00;;;;;;4978353;28;20041;-75
2023/07/15 12:19:48;;;;;;;1.45;0.30;;;27.40;1.00;;;;;;4978306;28;20059;-76
2023/07/15 12:22:14;;;;;;;3.30;0.22;;;27.50;1.00;;;;;;4979262;28;20096;-74
2023/07/15 12:24:39;;;;;;;0.70;0.30;;;27.50;1.00;;;;;;4993357;28;20137;-73
2023/07/15 12:27:05;;;;;;;1.83;0.30;;;27.40;1.00;;;;;;4978830;28;20073;-75
2023/07/15 12:29:32;;;;;;;1.55;0.40;;;27.30;1.00;;;;;;4977360;28;20567;-74
2023/07/15 12:31:57;;;;;;;1.63;0.30;;;27.30;1.00;;;;;;4960790;28;20050;-75
2023/07/15 12:34:23;;;;;;;1.88;0.40;;;27.80;1.00;;;;;;4982780;28;20042;-75
2023/07/15 12:36:49;;;;;;;1.52;0.30;;;28.20;1.00;;;;;;4986286;28;20954;-74
2023/07/15 12:39:16;;;;;;;1.30;0.40;;;28.30;1.00;;;;;;4985196;28;20666;-73
2023/07/15 12:41:41;;;;;;;0.90;0.30;;;28.20;1.00;;;;;;4987847;28;20045;-74
2023/07/15 12:44:12;;;;;;;0.82;0.30;;;28.00;1.00;;;;;;4982021;28;20046;-72
2023/07/15 12:46:37;;;;;;;1.05;0.30;;;28.20;1.00;;;;;;4981329;28;20056;-74
2023/07/15 12:49:03;;;;;;;0.93;0.30;;;28.10;1.00;;;;;;4980894;28;20038;-73
2023/07/15 12:51:32;;;;;;;1.52;0.30;;;28.50;1.00;;;;;;4979293;28;20045;-76